sensor_id;sensor_type;location;lat;lon;timestamp;P1;durP1;ratioP1;P2;durP2;ratioP2
34499;SDS011;20745;50.882;6.962;2022-08-03T00:01:45;9.93;;;2.90;;
34499;SDS011;20745;50.882;6.962;2022-08-03T00:04:17;8.80;;;2.95;;
34499;SDS011;20745;50.882;6.962;2022-08-03T00:06:44;7.95;;;2.72;;
34499;SDS011;20745;50.882;6.962;2022-08-03T00:09:11;9.23;;;3.03;;
34499;SDS011;20745;50.882;6.962;2022-08-03T00:11:38;9.73;;;3.35;;
34499;SDS011;20745;50.882;6.962;2022-08-03T00:14:06;8.07;;;2.95;;
34499;SDS011;20745;50.882;6.962;2022-08-03T00:16:41;9.18;;;2.83;;
34499;SDS011;20745;50.882;6.962;2022-08-03T00:19:14;12.45;;;3.75;;
34499;SDS011;20745;50.882;6.962;2022-08-03T00:21:41;9.88;;;3.17;;
34499;SDS011;20745;50.882;6.962;2022-08-03T00:24:20;11.38;;;3.00;;
34499;SDS011;20745;50.882;6.962;2022-08-03T00:26:55;9.70;;;3.00;;
34499;SDS011;20745;50.882;6.962;2022-08-03T00:29:30;13.60;;;3.80;;
34499;SDS011;20745;50.882;6.962;2022-08-03T00:31:57;11.85;;;3.55;;
34499;SDS011;20745;50.882;6.962;2022-08-03T00:34:29;9.98;;;3.47;;
34499;SDS011;20745;50.882;6.962;2022-08-03T00:37:17;12.13;;;3.40;;
34499;SDS011;20745;50.882;6.962;2022-08-03T00:39:44;10.65;;;3.15;;
34499;SDS011;20745;50.882;6.962;2022-08-03T00:42:14;9.30;;;3.33;;
34499;SDS011;20745;50.882;6.962;2022-08-03T00:44:47;10.38;;;3.45;;
34499;SDS011;20745;50.882;6.962;2022-08-03T00:47:15;11.45;;;3.28;;
34499;SDS011;20745;50.882;6.962;2022-08-03T00:50:00;8.70;;;3.00;;
34499;SDS011;20745;50.882;6.962;2022-08-03T00:52:28;12.25;;;3.03;;
34499;SDS011;20745;50.882;6.962;2022-08-03T00:54:55;9.02;;;3.22;;
34499;SDS011;20745;50.882;6.962;2022-08-03T00:57:23;9.63;;;3.40;;
34499;SDS011;20745;50.882;6.962;2022-08-03T00:59:55;9.32;;;3.30;;
34499;SDS011;20745;50.882;6.962;2022-08-03T01:02:23;8.38;;;3.10;;
34499;SDS011;20745;50.882;6.962;2022-08-03T01:04:51;9.40;;;3.20;;
34499;SDS011;20745;50.882;6.962;2022-08-03T01:13:27;10.05;;;3.53;;
34499;SDS011;20745;50.882;6.962;2022-08-03T01:16:24;10.18;;;3.28;;
34499;SDS011;20745;50.882;6.962;2022-08-03T01:19:17;9.82;;;3.33;;
34499;SDS011;20745;50.882;6.962;2022-08-03T01:31:34;8.15;;;3.20;;
34499;SDS011;20745;50.882;6.962;2022-08-03T01:34:27;11.68;;;3.58;;
34499;SDS011;20745;50.882;6.962;2022-08-03T01:36:58;8.93;;;3.42;;
34499;SDS011;20745;50.882;6.962;2022-08-03T01:39:29;8.50;;;3.28;;
34499;SDS011;20745;50.882;6.962;2022-08-03T01:42:07;8.48;;;3.45;;
34499;SDS011;20745;50.882;6.962;2022-08-03T01:44:39;9.23;;;2.92;;
34499;SDS011;20745;50.882;6.962;2022-08-03T01:47:08;8.90;;;3.38;;
34499;SDS011;20745;50.882;6.962;2022-08-03T01:49:38;9.35;;;2.90;;
34499;SDS011;20745;50.882;6.962;2022-08-03T01:52:11;9.90;;;3.60;;
34499;SDS011;20745;50.882;6.962;2022-08-03T01:54:44;9.75;;;2.90;;
34499;SDS011;20745;50.882;6.962;2022-08-03T01:57:18;11.70;;;3.30;;
34499;SDS011;20745;50.882;6.962;2022-08-03T01:59:47;9.00;;;3.40;;
34499;SDS011;20745;50.882;6.962;2022-08-03T02:02:19;13.48;;;3.53;;
34499;SDS011;20745;50.882;6.962;2022-08-03T02:05:00;12.30;;;3.72;;
34499;SDS011;20745;50.882;6.962;2022-08-03T02:07:46;8.00;;;3.22;;
34499;SDS011;20745;50.882;6.962;2022-08-03T02:10:15;9.57;;;3.20;;
34499;SDS011;20745;50.882;6.962;2022-08-03T02:13:19;10.32;;;3.38;;
34499;SDS011;20745;50.882;6.962;2022-08-03T02:15:47;7.53;;;3.10;;
34499;SDS011;20745;50.882;6.962;2022-08-03T02:18:15;9.52;;;3.42;;
34499;SDS011;20745;50.882;6.962;2022-08-03T02:20:44;9.45;;;3.45;;
34499;SDS011;20745;50.882;6.962;2022-08-03T02:23:16;11.70;;;3.42;;
34499;SDS011;20745;50.882;6.962;2022-08-03T02:25:50;8.73;;;2.92;;
34499;SDS011;20745;50.882;6.962;2022-08-03T02:28:20;8.52;;;2.95;;
34499;SDS011;20745;50.882;6.962;2022-08-03T02:30:52;8.18;;;3.22;;
34499;SDS011;20745;50.882;6.962;2022-08-03T02:33:30;8.60;;;2.90;;
34499;SDS011;20745;50.882;6.962;2022-08-03T02:36:06;10.90;;;3.45;;
34499;SDS011;20745;50.882;6.962;2022-08-03T02:38:35;9.30;;;3.22;;
34499;SDS011;20745;50.882;6.962;2022-08-03T02:41:14;8.13;;;3.05;;
34499;SDS011;20745;50.882;6.962;2022-08-03T02:43:44;7.45;;;3.20;;
34499;SDS011;20745;50.882;6.962;2022-08-03T02:46:52;8.18;;;3.42;;
34499;SDS011;20745;50.882;6.962;2022-08-03T02:49:23;9.98;;;3.20;;
34499;SDS011;20745;50.882;6.962;2022-08-03T02:52:31;9.30;;;3.20;;
34499;SDS011;20745;50.882;6.962;2022-08-03T02:55:01;9.27;;;3.38;;
34499;SDS011;20745;50.882;6.962;2022-08-03T02:57:30;8.57;;;3.10;;
34499;SDS011;20745;50.882;6.962;2022-08-03T03:00:02;8.07;;;3.10;;
34499;SDS011;20745;50.882;6.962;2022-08-03T03:02:30;10.40;;;3.13;;
34499;SDS011;20745;50.882;6.962;2022-08-03T03:04:58;9.32;;;3.10;;
34499;SDS011;20745;50.882;6.962;2022-08-03T03:07:55;12.13;;;3.22;;
34499;SDS011;20745;50.882;6.962;2022-08-03T03:10:24;11.38;;;3.03;;
34499;SDS011;20745;50.882;6.962;2022-08-03T03:12:55;7.60;;;3.22;;
34499;SDS011;20745;50.882;6.962;2022-08-03T03:15:24;7.75;;;3.17;;
34499;SDS011;20745;50.882;6.962;2022-08-03T03:17:54;10.00;;;3.85;;
34499;SDS011;20745;50.882;6.962;2022-08-03T03:20:24;8.77;;;3.25;;
34499;SDS011;20745;50.882;6.962;2022-08-03T03:22:59;9.23;;;3.40;;
34499;SDS011;20745;50.882;6.962;2022-08-03T03:25:28;8.52;;;3.15;;
34499;SDS011;20745;50.882;6.962;2022-08-03T03:28:16;8.77;;;3.05;;
34499;SDS011;20745;50.882;6.962;2022-08-03T03:30:43;9.35;;;3.65;;
34499;SDS011;20745;50.882;6.962;2022-08-03T03:33:19;8.43;;;3.40;;
34499;SDS011;20745;50.882;6.962;2022-08-03T03:35:48;6.75;;;2.90;;
34499;SDS011;20745;50.882;6.962;2022-08-03T03:38:17;9.68;;;3.22;;
34499;SDS011;20745;50.882;6.962;2022-08-03T03:40:45;8.88;;;3.38;;
34499;SDS011;20745;50.882;6.962;2022-08-03T03:43:28;6.85;;;3.05;;
34499;SDS011;20745;50.882;6.962;2022-08-03T03:45:56;9.02;;;3.40;;
34499;SDS011;20745;50.882;6.962;2022-08-03T03:48:24;8.80;;;3.47;;
34499;SDS011;20745;50.882;6.962;2022-08-03T03:50:54;8.52;;;3.13;;
34499;SDS011;20745;50.882;6.962;2022-08-03T03:53:23;9.73;;;3.47;;
34499;SDS011;20745;50.882;6.962;2022-08-03T03:55:51;9.02;;;3.25;;
34499;SDS011;20745;50.882;6.962;2022-08-03T03:58:29;9.63;;;3.10;;
34499;SDS011;20745;50.882;6.962;2022-08-03T04:00:58;9.13;;;3.22;;
34499;SDS011;20745;50.882;6.962;2022-08-03T04:03:43;7.55;;;3.05;;
34499;SDS011;20745;50.882;6.962;2022-08-03T04:06:11;10.05;;;3.00;;
34499;SDS011;20745;50.882;6.962;2022-08-03T04:08:57;8.45;;;3.28;;
34499;SDS011;20745;50.882;6.962;2022-08-03T04:11:53;8.45;;;3.00;;
34499;SDS011;20745;50.882;6.962;2022-08-03T04:14:32;10.85;;;3.30;;
34499;SDS011;20745;50.882;6.962;2022-08-03T04:17:02;8.50;;;3.30;;
34499;SDS011;20745;50.882;6.962;2022-08-03T04:19:35;9.60;;;3.25;;
34499;SDS011;20745;50.882;6.962;2022-08-03T04:22:08;8.63;;;3.53;;
34499;SDS011;20745;50.882;6.962;2022-08-03T04:24:45;11.95;;;3.30;;
34499;SDS011;20745;50.882;6.962;2022-08-03T04:27:16;11.38;;;3.65;;
34499;SDS011;20745;50.882;6.962;2022-08-03T04:29:48;9.05;;;3.13;;
34499;SDS011;20745;50.882;6.962;2022-08-03T04:32:17;9.80;;;3.22;;
34499;SDS011;20745;50.882;6.962;2022-08-03T04:35:00;11.40;;;3.50;;
34499;SDS011;20745;50.882;6.962;2022-08-03T04:37:32;8.70;;;3.03;;
34499;SDS011;20745;50.882;6.962;2022-08-03T04:40:13;8.30;;;2.80;;
34499;SDS011;20745;50.882;6.962;2022-08-03T04:42:48;11.05;;;4.13;;
34499;SDS011;20745;50.882;6.962;2022-08-03T04:45:17;13.32;;;4.35;;
34499;SDS011;20745;50.882;6.962;2022-08-03T04:47:46;10.63;;;3.28;;
34499;SDS011;20745;50.882;6.962;2022-08-03T04:50:24;10.70;;;3.58;;
34499;SDS011;20745;50.882;6.962;2022-08-03T04:52:54;17.63;;;3.60;;
34499;SDS011;20745;50.882;6.962;2022-08-03T04:55:40;11.60;;;3.10;;
34499;SDS011;20745;50.882;6.962;2022-08-03T04:58:16;7.88;;;3.05;;
34499;SDS011;20745;50.882;6.962;2022-08-03T05:00:46;11.52;;;3.38;;
34499;SDS011;20745;50.882;6.962;2022-08-03T05:03:17;12.43;;;3.63;;
34499;SDS011;20745;50.882;6.962;2022-08-03T05:05:53;16.33;;;3.78;;
34499;SDS011;20745;50.882;6.962;2022-08-03T05:08:45;10.95;;;3.65;;
34499;SDS011;20745;50.882;6.962;2022-08-03T05:11:16;9.68;;;3.25;;
34499;SDS011;20745;50.882;6.962;2022-08-03T05:13:52;12.18;;;3.40;;
34499;SDS011;20745;50.882;6.962;2022-08-03T05:16:37;7.05;;;3.20;;
34499;SDS011;20745;50.882;6.962;2022-08-03T05:19:05;13.82;;;3.10;;
34499;SDS011;20745;50.882;6.962;2022-08-03T05:21:51;14.05;;;3.50;;
34499;SDS011;20745;50.882;6.962;2022-08-03T05:24:25;11.70;;;3.10;;
34499;SDS011;20745;50.882;6.962;2022-08-03T05:26:59;7.60;;;3.13;;
34499;SDS011;20745;50.882;6.962;2022-08-03T05:29:26;9.82;;;3.35;;
34499;SDS011;20745;50.882;6.962;2022-08-03T05:31:53;8.32;;;3.60;;
34499;SDS011;20745;50.882;6.962;2022-08-03T05:34:31;10.48;;;3.38;;
34499;SDS011;20745;50.882;6.962;2022-08-03T05:37:16;11.48;;;3.42;;
34499;SDS011;20745;50.882;6.962;2022-08-03T05:39:43;9.57;;;3.60;;
34499;SDS011;20745;50.882;6.962;2022-08-03T05:42:10;9.77;;;3.17;;
34499;SDS011;20745;50.882;6.962;2022-08-03T05:44:41;10.48;;;3.47;;
34499;SDS011;20745;50.882;6.962;2022-08-03T05:47:08;10.80;;;3.22;;
34499;SDS011;20745;50.882;6.962;2022-08-03T05:49:36;9.40;;;3.45;;
34499;SDS011;20745;50.882;6.962;2022-08-03T05:52:09;8.48;;;3.50;;
34499;SDS011;20745;50.882;6.962;2022-08-03T05:54:44;11.45;;;3.67;;
34499;SDS011;20745;50.882;6.962;2022-08-03T05:57:24;14.57;;;4.05;;
34499;SDS011;20745;50.882;6.962;2022-08-03T05:59:52;9.40;;;3.73;;
34499;SDS011;20745;50.882;6.962;2022-08-03T06:02:25;11.85;;;3.63;;
34499;SDS011;20745;50.882;6.962;2022-08-03T06:04:54;11.15;;;4.03;;
34499;SDS011;20745;50.882;6.962;2022-08-03T06:07:31;11.57;;;3.80;;
34499;SDS011;20745;50.882;6.962;2022-08-03T06:09:59;11.80;;;3.45;;
34499;SDS011;20745;50.882;6.962;2022-08-03T06:12:48;9.15;;;3.90;;
34499;SDS011;20745;50.882;6.962;2022-08-03T06:15:21;12.45;;;4.10;;
34499;SDS011;20745;50.882;6.962;2022-08-03T06:17:49;12.20;;;4.18;;
34499;SDS011;20745;50.882;6.962;2022-08-03T06:20:18;10.07;;;3.50;;
34499;SDS011;20745;50.882;6.962;2022-08-03T06:23:04;13.05;;;4.07;;
34499;SDS011;20745;50.882;6.962;2022-08-03T06:25:33;9.93;;;3.72;;
34499;SDS011;20745;50.882;6.962;2022-08-03T06:28:00;11.70;;;4.03;;
34499;SDS011;20745;50.882;6.962;2022-08-03T06:30:27;14.82;;;3.92;;
34499;SDS011;20745;50.882;6.962;2022-08-03T06:32:55;11.68;;;4.47;;
34499;SDS011;20745;50.882;6.962;2022-08-03T06:35:24;14.98;;;5.72;;
34499;SDS011;20745;50.882;6.962;2022-08-03T06:37:59;12.48;;;4.63;;
34499;SDS011;20745;50.882;6.962;2022-08-03T06:40:26;15.48;;;5.32;;
34499;SDS011;20745;50.882;6.962;2022-08-03T06:42:58;14.75;;;5.32;;
34499;SDS011;20745;50.882;6.962;2022-08-03T06:45:27;14.15;;;4.50;;
34499;SDS011;20745;50.882;6.962;2022-08-03T06:48:02;12.35;;;4.78;;
34499;SDS011;20745;50.882;6.962;2022-08-03T06:50:36;10.55;;;4.45;;
34499;SDS011;20745;50.882;6.962;2022-08-03T06:53:04;10.87;;;4.53;;
34499;SDS011;20745;50.882;6.962;2022-08-03T06:55:32;15.88;;;4.20;;
34499;SDS011;20745;50.882;6.962;2022-08-03T06:58:11;10.90;;;4.30;;
34499;SDS011;20745;50.882;6.962;2022-08-03T07:00:38;10.82;;;3.75;;
34499;SDS011;20745;50.882;6.962;2022-08-03T07:03:08;9.93;;;3.85;;
34499;SDS011;20745;50.882;6.962;2022-08-03T07:05:35;15.63;;;4.18;;
34499;SDS011;20745;50.882;6.962;2022-08-03T07:08:21;9.75;;;3.90;;
34499;SDS011;20745;50.882;6.962;2022-08-03T07:11:00;7.75;;;3.47;;
34499;SDS011;20745;50.882;6.962;2022-08-03T07:13:27;12.57;;;3.70;;
34499;SDS011;20745;50.882;6.962;2022-08-03T07:15:54;11.70;;;3.65;;
34499;SDS011;20745;50.882;6.962;2022-08-03T07:18:27;10.30;;;3.42;;
34499;SDS011;20745;50.882;6.962;2022-08-03T07:20:56;13.18;;;3.78;;
34499;SDS011;20745;50.882;6.962;2022-08-03T07:23:33;11.43;;;3.72;;
34499;SDS011;20745;50.882;6.962;2022-08-03T07:26:00;10.95;;;3.65;;
34499;SDS011;20745;50.882;6.962;2022-08-03T07:28:27;15.52;;;4.13;;
34499;SDS011;20745;50.882;6.962;2022-08-03T07:30:58;9.50;;;2.92;;
34499;SDS011;20745;50.882;6.962;2022-08-03T07:33:43;9.93;;;3.78;;
34499;SDS011;20745;50.882;6.962;2022-08-03T07:36:11;12.77;;;3.63;;
34499;SDS011;20745;50.882;6.962;2022-08-03T07:38:38;9.75;;;3.83;;
34499;SDS011;20745;50.882;6.962;2022-08-03T07:41:05;14.30;;;3.90;;
34499;SDS011;20745;50.882;6.962;2022-08-03T07:43:40;8.68;;;3.22;;
34499;SDS011;20745;50.882;6.962;2022-08-03T07:46:07;12.93;;;3.35;;
34499;SDS011;20745;50.882;6.962;2022-08-03T07:48:53;9.95;;;3.80;;
34499;SDS011;20745;50.882;6.962;2022-08-03T07:51:20;13.07;;;4.07;;
34499;SDS011;20745;50.882;6.962;2022-08-03T07:53:47;9.52;;;3.42;;
34499;SDS011;20745;50.882;6.962;2022-08-03T07:56:29;11.73;;;3.70;;
34499;SDS011;20745;50.882;6.962;2022-08-03T07:58:56;11.27;;;3.47;;
34499;SDS011;20745;50.882;6.962;2022-08-03T08:01:23;11.40;;;3.42;;
34499;SDS011;20745;50.882;6.962;2022-08-03T08:03:51;14.77;;;4.78;;
34499;SDS011;20745;50.882;6.962;2022-08-03T08:06:27;9.50;;;3.42;;
34499;SDS011;20745;50.882;6.962;2022-08-03T08:09:13;11.10;;;3.97;;
34499;SDS011;20745;50.882;6.962;2022-08-03T08:11:40;15.85;;;4.25;;
34499;SDS011;20745;50.882;6.962;2022-08-03T08:14:07;15.93;;;4.07;;
34499;SDS011;20745;50.882;6.962;2022-08-03T08:16:35;13.13;;;3.65;;
34499;SDS011;20745;50.882;6.962;2022-08-03T08:19:02;10.20;;;3.58;;
34499;SDS011;20745;50.882;6.962;2022-08-03T08:21:33;9.77;;;3.90;;
34499;SDS011;20745;50.882;6.962;2022-08-03T08:24:23;13.63;;;4.15;;
34499;SDS011;20745;50.882;6.962;2022-08-03T08:26:50;10.82;;;3.38;;
34499;SDS011;20745;50.882;6.962;2022-08-03T08:29:18;10.93;;;2.83;;
34499;SDS011;20745;50.882;6.962;2022-08-03T08:31:50;9.57;;;3.20;;
34499;SDS011;20745;50.882;6.962;2022-08-03T08:34:20;7.75;;;2.67;;
34499;SDS011;20745;50.882;6.962;2022-08-03T08:36:47;10.40;;;2.90;;
34499;SDS011;20745;50.882;6.962;2022-08-03T08:39:18;11.48;;;3.65;;
34499;SDS011;20745;50.882;6.962;2022-08-03T08:41:54;11.90;;;3.53;;
34499;SDS011;20745;50.882;6.962;2022-08-03T08:44:21;11.18;;;2.95;;
34499;SDS011;20745;50.882;6.962;2022-08-03T08:46:49;11.00;;;2.83;;
34499;SDS011;20745;50.882;6.962;2022-08-03T08:49:37;16.17;;;2.75;;
34499;SDS011;20745;50.882;6.962;2022-08-03T08:52:25;8.43;;;2.47;;
34499;SDS011;20745;50.882;6.962;2022-08-03T08:55:20;8.68;;;2.45;;
34499;SDS011;20745;50.882;6.962;2022-08-03T08:57:57;9.00;;;2.70;;
34499;SDS011;20745;50.882;6.962;2022-08-03T09:00:36;6.72;;;2.42;;
34499;SDS011;20745;50.882;6.962;2022-08-03T09:03:03;9.05;;;3.05;;
34499;SDS011;20745;50.882;6.962;2022-08-03T09:05:37;8.50;;;2.95;;
34499;SDS011;20745;50.882;6.962;2022-08-03T09:08:22;11.30;;;2.70;;
34499;SDS011;20745;50.882;6.962;2022-08-03T09:10:49;11.73;;;2.70;;
34499;SDS011;20745;50.882;6.962;2022-08-03T09:13:16;8.55;;;2.70;;
34499;SDS011;20745;50.882;6.962;2022-08-03T09:16:09;12.32;;;2.83;;
34499;SDS011;20745;50.882;6.962;2022-08-03T09:18:44;10.43;;;2.70;;
34499;SDS011;20745;50.882;6.962;2022-08-03T09:21:25;9.95;;;2.83;;
34499;SDS011;20745;50.882;6.962;2022-08-03T09:24:00;10.80;;;2.80;;
34499;SDS011;20745;50.882;6.962;2022-08-03T09:26:33;8.85;;;2.70;;
34499;SDS011;20745;50.882;6.962;2022-08-03T09:31:44;12.35;;;2.90;;
34499;SDS011;20745;50.882;6.962;2022-08-03T09:34:13;16.83;;;3.13;;
34499;SDS011;20745;50.882;6.962;2022-08-03T09:37:01;10.20;;;2.75;;
34499;SDS011;20745;50.882;6.962;2022-08-03T09:39:28;10.35;;;2.58;;
34499;SDS011;20745;50.882;6.962;2022-08-03T09:42:12;13.13;;;2.72;;
34499;SDS011;20745;50.882;6.962;2022-08-03T09:44:42;18.90;;;3.58;;
34499;SDS011;20745;50.882;6.962;2022-08-03T09:47:16;9.27;;;2.40;;
34499;SDS011;20745;50.882;6.962;2022-08-03T09:55:16;12.73;;;2.90;;
34499;SDS011;20745;50.882;6.962;2022-08-03T09:58:09;7.03;;;2.08;;
34499;SDS011;20745;50.882;6.962;2022-08-03T10:00:53;9.75;;;2.35;;
34499;SDS011;20745;50.882;6.962;2022-08-03T10:03:39;6.57;;;2.15;;
34499;SDS011;20745;50.882;6.962;2022-08-03T10:06:27;14.23;;;2.30;;
34499;SDS011;20745;50.882;6.962;2022-08-03T10:09:05;8.63;;;2.35;;
34499;SDS011;20745;50.882;6.962;2022-08-03T10:11:46;6.75;;;1.85;;
34499;SDS011;20745;50.882;6.962;2022-08-03T10:14:34;9.32;;;2.58;;
34499;SDS011;20745;50.882;6.962;2022-08-03T10:17:03;7.13;;;1.70;;
34499;SDS011;20745;50.882;6.962;2022-08-03T10:19:31;6.55;;;1.60;;
34499;SDS011;20745;50.882;6.962;2022-08-03T10:22:02;7.00;;;1.83;;
34499;SDS011;20745;50.882;6.962;2022-08-03T10:24:33;4.78;;;1.65;;
34499;SDS011;20745;50.882;6.962;2022-08-03T10:27:09;5.45;;;1.42;;
34499;SDS011;20745;50.882;6.962;2022-08-03T10:29:50;7.82;;;1.98;;
34499;SDS011;20745;50.882;6.962;2022-08-03T10:32:27;9.93;;;2.30;;
34499;SDS011;20745;50.882;6.962;2022-08-03T10:35:15;5.85;;;1.80;;
34499;SDS011;20745;50.882;6.962;2022-08-03T10:37:57;6.68;;;1.90;;
34499;SDS011;20745;50.882;6.962;2022-08-03T10:40:27;8.65;;;1.88;;
34499;SDS011;20745;50.882;6.962;2022-08-03T10:43:18;6.38;;;1.92;;
34499;SDS011;20745;50.882;6.962;2022-08-03T10:45:57;8.30;;;2.10;;
34499;SDS011;20745;50.882;6.962;2022-08-03T10:48:26;7.22;;;1.90;;
34499;SDS011;20745;50.882;6.962;2022-08-03T10:50:54;6.95;;;2.35;;
34499;SDS011;20745;50.882;6.962;2022-08-03T10:53:40;8.43;;;2.10;;
34499;SDS011;20745;50.882;6.962;2022-08-03T10:56:36;10.35;;;1.92;;
34499;SDS011;20745;50.882;6.962;2022-08-03T11:03:00;10.07;;;2.30;;
34499;SDS011;20745;50.882;6.962;2022-08-03T11:05:38;6.35;;;2.08;;
34499;SDS011;20745;50.882;6.962;2022-08-03T11:08:26;7.13;;;2.03;;
34499;SDS011;20745;50.882;6.962;2022-08-03T11:10:59;6.85;;;1.80;;
34499;SDS011;20745;50.882;6.962;2022-08-03T11:13:55;9.20;;;2.20;;
34499;SDS011;20745;50.882;6.962;2022-08-03T11:16:32;7.93;;;2.30;;
34499;SDS011;20745;50.882;6.962;2022-08-03T11:19:13;6.90;;;2.20;;
34499;SDS011;20745;50.882;6.962;2022-08-03T11:35:07;7.93;;;2.22;;
34499;SDS011;20745;50.882;6.962;2022-08-03T11:40:49;8.52;;;2.25;;
34499;SDS011;20745;50.882;6.962;2022-08-03T11:48:41;8.52;;;2.38;;
34499;SDS011;20745;50.882;6.962;2022-08-03T11:51:34;4.95;;;1.90;;
34499;SDS011;20745;50.882;6.962;2022-08-03T11:54:03;9.05;;;2.50;;
34499;SDS011;20745;50.882;6.962;2022-08-03T11:56:44;7.18;;;2.13;;
34499;SDS011;20745;50.882;6.962;2022-08-03T11:59:11;9.27;;;2.17;;
34499;SDS011;20745;50.882;6.962;2022-08-03T12:01:47;6.68;;;1.90;;
34499;SDS011;20745;50.882;6.962;2022-08-03T12:04:15;7.50;;;1.95;;
34499;SDS011;20745;50.882;6.962;2022-08-03T12:07:01;7.50;;;1.85;;
34499;SDS011;20745;50.882;6.962;2022-08-03T12:09:33;4.95;;;1.92;;
34499;SDS011;20745;50.882;6.962;2022-08-03T12:12:07;9.48;;;2.05;;
34499;SDS011;20745;50.882;6.962;2022-08-03T12:14:40;5.43;;;1.60;;
34499;SDS011;20745;50.882;6.962;2022-08-03T12:17:42;9.63;;;2.00;;
34499;SDS011;20745;50.882;6.962;2022-08-03T12:20:13;9.20;;;1.85;;
34499;SDS011;20745;50.882;6.962;2022-08-03T12:23:19;10.38;;;1.80;;
34499;SDS011;20745;50.882;6.962;2022-08-03T12:25:46;7.03;;;1.90;;
34499;SDS011;20745;50.882;6.962;2022-08-03T12:28:16;5.45;;;1.85;;
34499;SDS011;20745;50.882;6.962;2022-08-03T12:31:12;8.43;;;1.75;;
34499;SDS011;20745;50.882;6.962;2022-08-03T12:36:29;7.80;;;2.10;;
34499;SDS011;20745;50.882;6.962;2022-08-03T12:39:24;7.70;;;1.80;;
34499;SDS011;20745;50.882;6.962;2022-08-03T12:41:55;12.00;;;2.55;;
34499;SDS011;20745;50.882;6.962;2022-08-03T12:44:50;9.48;;;2.10;;
34499;SDS011;20745;50.882;6.962;2022-08-03T12:47:22;7.78;;;2.45;;
34499;SDS011;20745;50.882;6.962;2022-08-03T12:49:53;4.93;;;2.03;;
34499;SDS011;20745;50.882;6.962;2022-08-03T12:52:24;8.80;;;2.00;;
34499;SDS011;20745;50.882;6.962;2022-08-03T12:54:58;4.95;;;2.13;;
34499;SDS011;20745;50.882;6.962;2022-08-03T12:57:40;5.20;;;1.70;;
34499;SDS011;20745;50.882;6.962;2022-08-03T13:00:11;8.43;;;1.95;;
34499;SDS011;20745;50.882;6.962;2022-08-03T13:03:02;10.95;;;2.33;;
34499;SDS011;20745;50.882;6.962;2022-08-03T13:05:56;12.02;;;2.22;;
34499;SDS011;20745;50.882;6.962;2022-08-03T13:08:24;8.73;;;1.95;;
34499;SDS011;20745;50.882;6.962;2022-08-03T13:14:10;7.97;;;1.98;;
34499;SDS011;20745;50.882;6.962;2022-08-03T13:16:49;6.57;;;1.83;;
34499;SDS011;20745;50.882;6.962;2022-08-03T13:19:16;9.93;;;2.13;;
34499;SDS011;20745;50.882;6.962;2022-08-03T13:22:24;5.85;;;1.70;;
34499;SDS011;20745;50.882;6.962;2022-08-03T13:24:52;7.10;;;1.80;;
34499;SDS011;20745;50.882;6.962;2022-08-03T13:27:23;7.22;;;1.67;;
34499;SDS011;20745;50.882;6.962;2022-08-03T13:30:11;8.35;;;1.77;;
34499;SDS011;20745;50.882;6.962;2022-08-03T13:32:45;10.82;;;1.90;;
34499;SDS011;20745;50.882;6.962;2022-08-03T13:35:17;5.05;;;1.73;;
34499;SDS011;20745;50.882;6.962;2022-08-03T13:37:44;9.05;;;2.20;;
34499;SDS011;20745;50.882;6.962;2022-08-03T13:40:15;6.68;;;1.60;;
34499;SDS011;20745;50.882;6.962;2022-08-03T13:42:58;10.60;;;1.83;;
34499;SDS011;20745;50.882;6.962;2022-08-03T13:45:25;6.50;;;1.50;;
34499;SDS011;20745;50.882;6.962;2022-08-03T13:48:11;6.57;;;1.55;;
34499;SDS011;20745;50.882;6.962;2022-08-03T13:53:09;6.78;;;1.70;;
34499;SDS011;20745;50.882;6.962;2022-08-03T13:55:42;7.35;;;1.75;;
34499;SDS011;20745;50.882;6.962;2022-08-03T13:58:09;6.22;;;1.65;;
34499;SDS011;20745;50.882;6.962;2022-08-03T14:00:40;6.03;;;1.90;;
34499;SDS011;20745;50.882;6.962;2022-08-03T14:03:26;4.57;;;1.70;;
34499;SDS011;20745;50.882;6.962;2022-08-03T14:05:53;5.65;;;1.60;;
34499;SDS011;20745;50.882;6.962;2022-08-03T14:08:39;3.92;;;1.40;;
34499;SDS011;20745;50.882;6.962;2022-08-03T14:11:08;10.23;;;1.60;;
34499;SDS011;20745;50.882;6.962;2022-08-03T14:13:36;5.80;;;1.77;;
34499;SDS011;20745;50.882;6.962;2022-08-03T14:16:12;7.22;;;1.77;;
34499;SDS011;20745;50.882;6.962;2022-08-03T14:18:42;4.55;;;1.55;;
34499;SDS011;20745;50.882;6.962;2022-08-03T14:21:10;6.15;;;1.67;;
34499;SDS011;20745;50.882;6.962;2022-08-03T14:23:39;5.70;;;1.65;;
34499;SDS011;20745;50.882;6.962;2022-08-03T14:26:16;6.30;;;1.63;;
34499;SDS011;20745;50.882;6.962;2022-08-03T14:28:45;6.00;;;1.63;;
34499;SDS011;20745;50.882;6.962;2022-08-03T14:31:16;3.88;;;1.63;;
34499;SDS011;20745;50.882;6.962;2022-08-03T14:34:03;7.70;;;1.90;;
34499;SDS011;20745;50.882;6.962;2022-08-03T14:36:30;7.55;;;1.50;;
34499;SDS011;20745;50.882;6.962;2022-08-03T14:39:18;6.28;;;1.73;;
34499;SDS011;20745;50.882;6.962;2022-08-03T14:41:48;6.53;;;2.03;;
34499;SDS011;20745;50.882;6.962;2022-08-03T14:44:15;7.85;;;1.77;;
34499;SDS011;20745;50.882;6.962;2022-08-03T14:46:42;8.32;;;1.45;;
34499;SDS011;20745;50.882;6.962;2022-08-03T14:49:09;5.95;;;1.98;;
34499;SDS011;20745;50.882;6.962;2022-08-03T14:51:56;6.35;;;1.70;;
34499;SDS011;20745;50.882;6.962;2022-08-03T14:54:24;7.93;;;1.50;;
34499;SDS011;20745;50.882;6.962;2022-08-03T14:59:19;8.25;;;1.67;;
34499;SDS011;20745;50.882;6.962;2022-08-03T15:01:54;5.65;;;1.70;;
34499;SDS011;20745;50.882;6.962;2022-08-03T15:07:00;6.18;;;1.90;;
34499;SDS011;20745;50.882;6.962;2022-08-03T15:09:29;6.85;;;1.90;;
34499;SDS011;20745;50.882;6.962;2022-08-03T15:12:04;7.47;;;1.70;;
34499;SDS011;20745;50.882;6.962;2022-08-03T15:14:32;8.25;;;1.90;;
34499;SDS011;20745;50.882;6.962;2022-08-03T15:17:04;7.00;;;1.90;;
34499;SDS011;20745;50.882;6.962;2022-08-03T15:19:32;5.35;;;1.60;;
34499;SDS011;20745;50.882;6.962;2022-08-03T15:22:19;8.20;;;1.83;;
34499;SDS011;20745;50.882;6.962;2022-08-03T15:25:11;5.43;;;1.50;;
34499;SDS011;20745;50.882;6.962;2022-08-03T15:28:04;6.82;;;1.70;;
34499;SDS011;20745;50.882;6.962;2022-08-03T15:30:53;6.65;;;1.77;;
34499;SDS011;20745;50.882;6.962;2022-08-03T15:33:20;4.63;;;1.85;;
34499;SDS011;20745;50.882;6.962;2022-08-03T15:35:47;5.15;;;1.58;;
34499;SDS011;20745;50.882;6.962;2022-08-03T15:38:15;4.82;;;1.38;;
34499;SDS011;20745;50.882;6.962;2022-08-03T15:40:45;7.43;;;1.80;;
34499;SDS011;20745;50.882;6.962;2022-08-03T15:43:15;6.93;;;1.70;;
34499;SDS011;20745;50.882;6.962;2022-08-03T15:45:54;9.93;;;2.08;;
34499;SDS011;20745;50.882;6.962;2022-08-03T15:48:42;7.32;;;1.73;;
34499;SDS011;20745;50.882;6.962;2022-08-03T15:51:27;6.43;;;1.77;;
34499;SDS011;20745;50.882;6.962;2022-08-03T15:53:54;5.82;;;1.70;;
34499;SDS011;20745;50.882;6.962;2022-08-03T15:56:23;11.50;;;1.85;;
34499;SDS011;20745;50.882;6.962;2022-08-03T15:58:54;6.60;;;1.85;;
34499;SDS011;20745;50.882;6.962;2022-08-03T16:01:39;5.40;;;1.70;;
34499;SDS011;20745;50.882;6.962;2022-08-03T16:04:06;8.85;;;1.75;;
34499;SDS011;20745;50.882;6.962;2022-08-03T16:06:39;7.05;;;1.80;;
34499;SDS011;20745;50.882;6.962;2022-08-03T16:09:07;7.10;;;1.80;;
34499;SDS011;20745;50.882;6.962;2022-08-03T16:11:54;12.30;;;2.17;;
34499;SDS011;20745;50.882;6.962;2022-08-03T16:14:21;5.35;;;1.55;;
34499;SDS011;20745;50.882;6.962;2022-08-03T16:17:01;9.90;;;1.73;;
34499;SDS011;20745;50.882;6.962;2022-08-03T16:19:29;6.07;;;2.00;;
34499;SDS011;20745;50.882;6.962;2022-08-03T16:21:56;5.28;;;1.50;;
34499;SDS011;20745;50.882;6.962;2022-08-03T16:24:23;12.15;;;2.17;;
34499;SDS011;20745;50.882;6.962;2022-08-03T16:27:12;7.47;;;1.70;;
34499;SDS011;20745;50.882;6.962;2022-08-03T16:29:59;6.28;;;1.92;;
34499;SDS011;20745;50.882;6.962;2022-08-03T16:32:26;10.18;;;2.00;;